Time;durP1;ratioP1;P1;durP2;ratioP2;P2;SDS_P1;SDS_P2;PMS_P1;PMS_P2;Temp;Humidity;BMP_temperature;BMP_pressure;BME280_temperature;BME280_humidity;BME280_pressure;Samples;Min_cycle;Max_cycle;Signal;HPM_P1;HPM_P2
2022/01/08 00:01:16;;;;;;;8.55;1.60;;;;;;;2.37;100.00;99804.91;4895274;29;20049;-85
2022/01/08 00:03:45;;;;;;;3.85;1.58;;;;;;;2.40;100.00;99801.44;4911164;29;20056;-85
2022/01/08 00:06:14;;;;;;;6.53;1.65;;;;;;;2.38;100.00;99801.47;4895555;29;20511;-85
2022/01/08 00:08:41;;;;;;;4.55;1.63;;;;;;;2.43;100.00;99803.97;4890815;29;20056;-85
2022/01/08 00:11:10;;;;;;;5.20;1.55;;;;;;;1.97;100.00;99722.19;4892250;29;20498;-85
2022/01/08 00:13:39;;;;;;;4.47;1.75;;;;;;;2.26;100.00;99812.88;4892163;29;20063;-85
2022/01/08 00:16:06;;;;;;;5.50;1.67;;;;;;;2.28;100.00;99795.63;4908899;29;20057;-85
2022/01/08 00:18:33;;;;;;;8.05;1.73;;;;;;;2.35;100.00;99805.84;4910862;29;20617;-85
2022/01/08 00:21:00;;;;;;;4.10;1.50;;;;;;;2.27;100.00;99804.25;4897548;29;20070;-85
2022/01/08 00:23:27;;;;;;;5.13;1.50;;;;;;;2.25;100.00;99780.19;4908598;29;20066;-85
2022/01/08 00:25:54;;;;;;;3.90;1.58;;;;;;;2.13;100.00;99754.59;4906353;29;20049;-85
2022/01/08 00:28:21;;;;;;;4.28;1.42;;;;;;;2.25;100.00;99780.19;4899897;29;20064;-84
2022/01/08 00:30:50;;;;;;;4.13;1.50;;;;;;;2.02;100.00;99757.38;4918454;29;20493;-84
2022/01/08 00:33:16;;;;;;;4.80;1.50;;;;;;;2.37;100.00;99788.56;4902019;29;20418;-84
2022/01/08 00:35:43;;;;;;;3.13;1.50;;;;;;;2.05;100.00;99735.78;4901455;29;20048;-84
2022/01/08 00:38:10;;;;;;;2.17;1.20;;;;;;;2.41;100.00;99795.41;4902085;29;20422;-84
2022/01/08 00:40:37;;;;;;;2.75;1.30;;;;;;;2.11;100.00;99733.09;4902119;29;20409;-83
2022/01/08 00:43:04;;;;;;;2.97;1.30;;;;;;;2.28;100.00;99762.06;4903213;29;20052;-83
2022/01/08 00:45:31;;;;;;;3.95;1.45;;;;;;;2.26;100.00;99774.13;4919597;29;20052;-82
2022/01/08 00:47:57;;;;;;;3.20;1.30;;;;;;;1.81;100.00;99703.56;4919413;29;20056;-82
2022/01/08 00:50:25;;;;;;;2.92;1.33;;;;;;;2.28;100.00;99767.22;4918435;29;20048;-83
2022/01/08 00:52:51;;;;;;;4.47;1.58;;;;;;;1.78;100.00;99694.13;4918478;29;20463;-82
2022/01/08 00:55:18;;;;;;;4.35;1.67;;;;;;;1.79;100.00;99666.56;4902469;29;20052;-83
2022/01/08 00:57:45;;;;;;;4.10;1.40;;;;;;;2.21;100.00;99752.72;4901979;29;20062;-82
2022/01/08 01:00:13;;;;;;;2.70;1.38;;;;;;;2.17;100.00;99737.31;4918108;29;20062;-83
2022/01/08 01:02:41;;;;;;;1.90;1.30;;;;;;;2.14;100.00;99719.28;4902316;29;20134;-84
2022/01/08 01:05:09;;;;;;;3.92;1.40;;;;;;;1.94;100.00;99665.44;4902920;29;20048;-84
2022/01/08 01:07:36;;;;;;;3.85;1.52;;;;;;;2.13;100.00;99674.53;4902382;29;20059;-83
2022/01/08 01:10:04;;;;;;;5.22;1.45;;;;;;;2.19;100.00;99676.97;4921446;29;20462;-84
2022/01/08 01:12:31;;;;;;;2.25;1.13;;;;;;;2.15;100.00;99674.50;4905226;29;20070;-84
2022/01/08 01:15:12;;;;;;;1.20;1.00;;;;;;;2.33;100.00;99691.34;4905681;29;20140;-84
2022/01/08 01:17:39;;;;;;;2.05;1.33;;;;;;;2.11;100.00;99672.84;4899692;29;20078;-85
2022/01/08 01:20:08;;;;;;;2.65;1.35;;;;;;;2.26;100.00;99698.38;4905843;29;20052;-84
2022/01/08 01:26:00;;;;;;;3.35;1.30;;;;;;;2.24;100.00;99687.22;4935902;29;20070;-84
2022/01/08 01:41:32;;;;;;;2.10;1.40;;;;;;;1.94;100.00;99606.91;4916526;29;20052;-85
2022/01/08 01:49:20;;;;;;;2.92;1.48;;;;;;;1.92;100.00;99584.59;4915596;29;20056;-85
2022/01/08 01:51:47;;;;;;;7.93;2.30;;;;;;;1.46;100.00;99589.78;4935066;29;20055;-84
2022/01/08 01:54:14;;;;;;;3.85;1.70;;;;;;;1.86;100.00;99552.88;4935259;29;20394;-85
2022/01/08 01:56:41;;;;;;;5.10;1.80;;;;;;;1.96;100.00;99581.91;4918632;29;20070;-85
2022/01/08 01:59:07;;;;;;;3.88;1.50;;;;;;;2.05;100.00;99614.44;4897702;29;20052;-84
2022/01/08 02:01:34;;;;;;;4.60;1.80;;;;;;;1.89;100.00;99614.75;4899180;29;20064;-84
2022/01/08 02:04:01;;;;;;;8.18;2.80;;;;;;;1.64;100.00;99603.22;4899373;29;20107;-84
2022/01/08 02:06:28;;;;;;;8.43;2.60;;;;;;;1.62;100.00;99612.72;4898450;29;20067;-85
2022/01/08 02:08:54;;;;;;;4.10;1.58;;;;;;;1.87;100.00;99593.25;4898528;29;20487;-83
2022/01/08 02:11:21;;;;;;;5.68;1.95;;;;;;;1.74;100.00;99575.50;4899566;29;20058;-85
2022/01/08 02:13:51;;;;;;;5.10;1.88;;;;;;;2.05;100.00;99583.44;4915969;29;20056;-82
2022/01/08 02:16:17;;;;;;;4.80;2.00;;;;;;;1.87;100.00;99569.19;4901709;29;20506;-82
2022/01/08 02:18:46;;;;;;;7.75;2.40;;;;;;;1.64;100.00;99569.66;4898639;29;20044;-82
2022/01/08 02:21:15;;;;;;;5.82;1.98;;;;;;;1.81;100.00;99562.44;4926568;29;20132;-82
2022/01/08 02:23:43;;;;;;;5.00;1.70;;;;;;;1.79;100.00;99571.94;4918408;29;20402;-83
2022/01/08 02:26:11;;;;;;;6.95;1.88;;;;;;;1.74;100.00;99563.44;4917916;29;20047;-83
2022/01/08 02:28:39;;;;;;;4.05;1.60;;;;;;;1.73;100.00;99554.00;4911812;29;20052;-83
2022/01/08 02:31:18;;;;;;;4.53;1.70;;;;;;;1.91;100.00;99563.06;4895180;29;20060;-83
2022/01/08 02:33:45;;;;;;;3.53;1.50;;;;;;;1.75;100.00;99559.97;4896670;29;20057;-83
2022/01/08 02:36:12;;;;;;;4.80;1.52;;;;;;;1.65;100.00;99543.84;4907819;29;20072;-83
2022/01/08 02:38:39;;;;;;;3.95;1.80;;;;;;;1.93;100.00;99517.47;4898013;29;20059;-82
2022/01/08 02:41:07;;;;;;;3.38;1.30;;;;;;;1.83;100.00;99501.31;4914914;29;20410;-83
2022/01/08 02:43:40;;;;;;;5.97;1.45;;;;;;;2.09;100.00;99507.63;4915090;29;20058;-83
2022/01/08 02:46:07;;;;;;;2.13;1.25;;;;;;;2.09;100.00;99507.63;4897960;29;20054;-83
2022/01/08 02:48:34;;;;;;;4.22;1.10;;;;;;;2.27;100.00;99502.03;4897134;29;20044;-83
2022/01/08 02:51:00;;;;;;;3.95;1.30;;;;;;;2.05;100.00;99490.50;4914392;29;20131;-83
2022/01/08 02:53:27;;;;;;;4.70;1.40;;;;;;;2.25;100.00;99480.56;4934394;29;20094;-83
2022/01/08 02:55:54;;;;;;;5.00;1.50;;;;;;;2.27;100.00;99465.88;4917667;29;20052;-82
2022/01/08 02:58:25;;;;;;;5.00;1.27;;;;;;;2.41;100.00;99473.31;4913212;29;20063;-83
2022/01/08 03:00:52;;;;;;;3.33;1.40;;;;;;;2.36;100.00;99457.06;4897880;29;20443;-83
2022/01/08 03:03:19;;;;;;;3.45;1.30;;;;;;;2.47;100.00;99462.78;4914837;29;20095;-83
2022/01/08 03:05:46;;;;;;;2.40;1.20;;;;;;;2.48;100.00;99463.66;4898392;29;20052;-83
2022/01/08 03:08:13;;;;;;;1.27;1.10;;;;;;;2.55;100.00;99459.16;4898371;29;20521;-83
2022/01/08 03:10:39;;;;;;;4.57;1.20;;;;;;;2.55;100.00;99465.22;4897759;29;20056;-83
2022/01/08 03:13:07;;;;;;;4.68;1.40;;;;;;;2.24;100.00;99422.03;4898190;29;20063;-83
2022/01/08 03:15:36;;;;;;;3.38;1.30;;;;;;;2.50;100.00;99438.63;4914237;29;20056;-83
2022/01/08 03:18:04;;;;;;;2.72;1.30;;;;;;;2.69;100.00;99451.06;4916534;29;20056;-83
2022/01/08 03:20:31;;;;;;;6.97;2.00;;;;;;;2.64;100.00;99438.28;4928466;29;20134;-83
2022/01/08 03:23:03;;;;;;;3.17;1.40;;;;;;;2.76;100.00;99443.13;4920797;29;20066;-83
2022/01/08 03:25:31;;;;;;;3.47;1.45;;;;;;;2.68;100.00;99434.72;4938430;29;20402;-83
2022/01/08 03:27:58;;;;;;;2.72;1.30;;;;;;;2.78;100.00;99419.81;4936272;29;20059;-83
2022/01/08 03:30:24;;;;;;;3.75;1.38;;;;;;;2.78;100.00;99406.88;4900889;29;20052;-83
2022/01/08 03:32:52;;;;;;;2.35;1.23;;;;;;;2.82;100.00;99414.53;4899164;29;20052;-83
2022/01/08 03:35:19;;;;;;;5.07;1.25;;;;;;;2.86;100.00;99428.22;4903471;29;20052;-83
2022/01/08 03:37:47;;;;;;;4.32;1.50;;;;;;;2.81;100.00;99412.81;4901849;29;20063;-83
2022/01/08 03:40:14;;;;;;;6.80;1.48;;;;;;;3.02;100.00;99416.56;4917773;29;20785;-83
2022/01/08 03:42:41;;;;;;;3.80;1.40;;;;;;;2.99;100.00;99410.63;4901629;29;20482;-83
2022/01/08 03:45:08;;;;;;;4.47;1.55;;;;;;;2.73;100.00;99412.19;4901682;29;21039;-83
2022/01/08 03:50:14;;;;;;;6.20;1.50;;;;;;;2.92;100.00;99372.91;4929287;29;20052;-83
2022/01/08 03:52:41;;;;;;;6.13;1.50;;;;;;;2.97;100.00;99374.47;4919472;29;20048;-83
2022/01/08 03:55:08;;;;;;;8.82;1.65;;;;;;;2.91;100.00;99374.66;4901834;29;20052;-83
2022/01/08 03:57:35;;;;;;;7.13;1.50;;;;;;;2.98;100.00;99371.00;4900944;29;20652;-83
2022/01/08 04:00:03;;;;;;;5.07;1.50;;;;;;;3.12;100.00;99367.19;4917345;29;20501;-83
2022/01/08 04:02:30;;;;;;;5.07;1.52;;;;;;;2.87;100.00;99338.56;4900694;29;20087;-83
2022/01/08 04:04:57;;;;;;;5.07;1.40;;;;;;;3.02;100.00;99318.28;4909179;29;20043;-83
2022/01/08 04:07:23;;;;;;;5.70;1.75;;;;;;;3.07;100.00;99322.50;4920348;29;20185;-83
2022/01/08 04:09:50;;;;;;;3.35;1.45;;;;;;;2.78;100.00;99300.91;4905518;29;20404;-83
2022/01/08 04:12:28;;;;;;;11.95;1.60;;;;;;;2.79;100.00;99306.03;4900762;29;20067;-83
2022/01/08 04:15:04;;;;;;;4.25;1.70;;;;;;;2.72;100.00;99285.59;4917845;29;20055;-83
2022/01/08 04:17:31;;;;;;;14.98;3.75;;;;;;;2.79;100.00;99277.59;4917073;29;20052;-83
2022/01/08 04:19:58;;;;;;;7.95;1.77;;;;;;;2.66;100.00;99269.38;4916673;29;20100;-83
2022/01/08 04:22:26;;;;;;;6.28;1.80;;;;;;;2.79;100.00;99246.59;4901366;29;20498;-83
2022/01/08 04:24:55;;;;;;;5.90;1.63;;;;;;;3.02;100.00;99243.31;4900867;29;20048;-83
2022/01/08 04:27:21;;;;;;;7.03;2.00;;;;;;;2.97;100.00;99252.09;4900616;29;20062;-83
2022/01/08 04:29:48;;;;;;;8.48;3.25;;;;;;;2.94;100.00;99258.22;4915948;29;20487;-83
2022/01/08 04:32:15;;;;;;;10.02;2.53;;;;;;;2.81;100.00;99262.06;4900614;29;20503;-83
2022/01/08 04:34:42;;;;;;;4.70;1.85;;;;;;;2.84;100.00;99255.06;4917359;29;20055;-83
2022/01/08 04:37:09;;;;;;;8.23;2.50;;;;;;;2.78;100.00;99238.88;4900651;29;20086;-84
2022/01/08 04:39:36;;;;;;;9.95;2.63;;;;;;;3.05;100.00;99234.63;4916127;29;20055;-84
2022/01/08 04:42:03;;;;;;;8.75;2.40;;;;;;;3.30;100.00;99233.84;4900610;29;20052;-83
2022/01/08 04:44:30;;;;;;;6.05;2.42;;;;;;;3.34;100.00;99214.75;4900763;29;20131;-84
2022/01/08 04:46:57;;;;;;;8.98;2.60;;;;;;;3.36;100.00;99185.31;4900554;29;20502;-84
2022/01/08 04:49:24;;;;;;;9.75;2.75;;;;;;;3.54;100.00;99194.25;4903724;29;20058;-83
2022/01/08 04:51:51;;;;;;;7.80;2.50;;;;;;;3.44;100.00;99161.81;4912856;29;20058;-82
2022/01/08 04:54:19;;;;;;;7.45;2.20;;;;;;;3.62;100.00;99147.38;4916661;29;20052;-84
2022/01/08 04:56:46;;;;;;;12.60;2.88;;;;;;;3.53;100.00;99127.00;4916123;29;20079;-83
2022/01/08 04:59:13;;;;;;;10.38;2.80;;;;;;;3.74;100.00;99130.59;4898727;29;20056;-84
2022/01/08 05:01:40;;;;;;;13.43;3.22;;;;;;;3.51;100.00;99126.22;4915238;29;20135;-84
2022/01/08 05:04:06;;;;;;;14.02;2.90;;;;;;;3.37;100.00;99116.34;4900050;29;20075;-84
2022/01/08 05:06:33;;;;;;;11.60;2.88;;;;;;;3.68;100.00;99095.41;4915696;29;20107;-84
2022/01/08 05:09:00;;;;;;;11.35;3.03;;;;;;;3.93;100.00;99095.38;4898661;29;20070;-82
2022/01/08 05:11:27;;;;;;;15.82;3.55;;;;;;;3.97;100.00;99075.38;4899584;29;20416;-82
2022/01/08 05:13:54;;;;;;;9.60;2.63;;;;;;;3.91;100.00;99073.00;4899543;29;20062;-82
2022/01/08 05:16:22;;;;;;;11.85;3.25;;;;;;;3.88;100.00;99060.16;4902791;29;20059;-82
2022/01/08 05:18:54;;;;;;;23.50;3.22;;;;;;;3.80;100.00;99066.47;4908910;29;20550;-82
2022/01/08 05:21:27;;;;;;;17.00;3.65;;;;;;;3.79;100.00;99038.09;4906865;29;20055;-82
2022/01/08 05:23:55;;;;;;;7.03;2.25;;;;;;;3.88;100.00;99009.25;4918076;29;20056;-82
2022/01/08 05:26:24;;;;;;;8.30;2.45;;;;;;;4.10;100.00;99027.38;4918242;29;20483;-82
2022/01/08 05:28:51;;;;;;;9.73;2.78;;;;;;;3.90;100.00;99017.81;4911463;29;20068;-82
2022/01/08 05:31:20;;;;;;;14.18;3.60;;;;;;;3.95;100.00;99025.41;4899627;29;20052;-82
2022/01/08 05:33:48;;;;;;;9.30;3.38;;;;;;;4.21;100.00;99010.59;4899374;29;20085;-82
2022/01/08 05:36:15;;;;;;;13.20;2.60;;;;;;;4.11;100.00;98999.75;4899615;29;20640;-82
2022/01/08 05:38:42;;;;;;;11.75;3.20;;;;;;;3.99;100.00;98967.41;4889012;29;20087;-82
2022/01/08 05:41:10;;;;;;;13.43;2.80;;;;;;;4.18;100.00;98977.91;4906521;29;20052;-82
2022/01/08 05:43:37;;;;;;;6.80;2.28;;;;;;;4.38;100.00;98971.91;4904495;29;20052;-82
2022/01/08 05:46:04;;;;;;;9.85;2.92;;;;;;;4.20;100.00;98976.09;4902345;29;20694;-82
2022/01/08 05:48:31;;;;;;;14.63;2.95;;;;;;;4.34;100.00;98983.31;4908122;29;20504;-82
2022/01/08 05:50:58;;;;;;;12.27;3.00;;;;;;;4.06;100.00;98966.25;4899576;29;20052;-82
2022/01/08 05:53:24;;;;;;;9.98;2.20;;;;;;;4.42;100.00;98963.09;4886393;29;20063;-82
2022/01/08 05:55:51;;;;;;;11.13;2.40;;;;;;;4.24;100.00;98959.50;4898555;29;20052;-82
2022/01/08 05:58:18;;;;;;;12.10;2.42;;;;;;;4.24;100.00;98950.91;4899181;29;20491;-82
2022/01/08 06:00:45;;;;;;;16.52;3.03;;;;;;;4.39;100.00;98929.53;4898757;29;20059;-85
2022/01/08 06:03:12;;;;;;;7.63;2.85;;;;;;;4.46;100.00;98915.44;4899283;29;20436;-85
2022/01/08 06:05:39;;;;;;;14.10;2.55;;;;;;;4.46;100.00;98915.44;4899692;29;20106;-82
2022/01/08 06:08:06;;;;;;;11.27;2.40;;;;;;;4.34;100.00;98909.00;4899130;29;20059;-82
2022/01/08 06:10:32;;;;;;;13.73;3.08;;;;;;;4.66;100.00;98906.81;4898321;29;20055;-83
2022/01/08 06:12:59;;;;;;;19.33;3.25;;;;;;;3.99;100.00;98859.47;4899188;29;20075;-82
2022/01/08 06:15:26;;;;;;;9.88;2.38;;;;;;;4.42;100.00;98881.94;4914810;29;20052;-82
2022/01/08 06:17:53;;;;;;;9.15;2.08;;;;;;;4.57;100.00;98878.69;4908604;29;20102;-83
2022/01/08 06:20:20;;;;;;;13.63;2.30;;;;;;;4.06;100.00;98859.25;4914194;29;20056;-82
2022/01/08 06:22:47;;;;;;;11.90;2.67;;;;;;;4.50;100.00;98866.91;4899493;29;20139;-82
2022/01/08 06:25:14;;;;;;;10.32;1.88;;;;;;;4.31;100.00;98854.72;4898896;29;20052;-83
2022/01/08 06:27:40;;;;;;;10.63;1.90;;;;;;;4.13;100.00;98821.81;4899224;29;20060;-82
2022/01/08 06:30:07;;;;;;;11.90;2.00;;;;;;;4.24;100.00;98842.94;4897346;29;20052;-83
2022/01/08 06:32:34;;;;;;;8.40;1.83;;;;;;;4.42;100.00;98833.53;4898155;29;20063;-83
2022/01/08 06:35:01;;;;;;;10.95;2.20;;;;;;;4.41;100.00;98816.31;4915988;29;20375;-82
2022/01/08 06:37:28;;;;;;;7.82;1.70;;;;;;;4.53;100.00;98820.09;4898994;29;20059;-83
2022/01/08 06:39:55;;;;;;;8.35;1.92;;;;;;;4.37;100.00;98796.59;4914697;29;20063;-81
2022/01/08 06:42:22;;;;;;;5.40;1.85;;;;;;;4.57;100.00;98803.53;4898742;29;20056;-83
2022/01/08 06:44:49;;;;;;;7.28;1.70;;;;;;;4.76;100.00;98808.72;4898707;29;20056;-82
2022/01/08 06:47:15;;;;;;;8.43;1.90;;;;;;;4.53;100.00;98789.00;4895233;29;20792;-82
2022/01/08 06:49:44;;;;;;;6.93;1.80;;;;;;;4.27;100.00;98779.78;4907818;29;20053;-82
2022/01/08 06:52:10;;;;;;;8.02;1.92;;;;;;;4.63;100.00;98777.31;4900831;29;20822;-83
2022/01/08 06:54:37;;;;;;;10.95;1.77;;;;;;;4.52;100.00;98764.00;4902204;29;20063;-82
2022/01/08 06:57:04;;;;;;;13.13;2.72;;;;;;;4.73;100.00;98744.06;4902245;29;20070;-82
2022/01/08 06:59:32;;;;;;;9.55;1.90;;;;;;;4.35;100.00;98742.25;4903704;29;20058;-82
2022/01/08 07:01:59;;;;;;;9.82;1.90;;;;;;;4.47;100.00;98732.28;4910851;29;20058;-82
2022/01/08 07:04:26;;;;;;;9.90;2.20;;;;;;;4.71;100.00;98707.84;4919498;29;20062;-82
2022/01/08 07:06:53;;;;;;;8.05;2.15;;;;;;;4.52;100.00;98710.41;4901633;29;20176;-82
2022/01/08 07:09:20;;;;;;;6.75;1.85;;;;;;;4.73;100.00;98700.00;4899668;29;20058;-82
2022/01/08 07:11:46;;;;;;;8.80;1.95;;;;;;;4.57;100.00;98685.13;4901591;29;20048;-82
2022/01/08 07:14:13;;;;;;;11.55;2.28;;;;;;;4.46;100.00;98668.38;4928023;29;20044;-82
2022/01/08 07:16:40;;;;;;;14.65;2.85;;;;;;;4.49;100.00;98687.22;4919607;29;20057;-82
2022/01/08 07:19:07;;;;;;;6.00;1.75;;;;;;;4.45;100.00;98666.72;4897567;29;20070;-82
2022/01/08 07:21:33;;;;;;;10.57;3.25;;;;;;;4.53;100.00;98644.72;4908698;29;20052;-82
2022/01/08 07:24:00;;;;;;;7.43;1.70;;;;;;;4.72;100.00;98644.69;4907682;29;20533;-82
2022/01/08 07:26:27;;;;;;;12.63;2.78;;;;;;;4.49;100.00;98640.56;4937032;29;20622;-82
2022/01/08 07:28:54;;;;;;;8.50;1.80;;;;;;;4.64;100.00;98617.44;4923010;29;20052;-81
2022/01/08 07:31:22;;;;;;;12.10;2.70;;;;;;;4.82;100.00;98623.53;4916593;29;20075;-82
2022/01/08 07:33:49;;;;;;;13.15;2.95;;;;;;;4.64;100.00;98613.13;4922275;29;20087;-82
2022/01/08 07:36:17;;;;;;;8.93;1.70;;;;;;;4.55;100.00;98601.44;4915611;29;20055;-82
2022/01/08 07:38:45;;;;;;;7.45;2.10;;;;;;;4.59;100.00;98609.06;4908503;29;20060;-82
2022/01/08 07:41:12;;;;;;;13.15;2.67;;;;;;;4.81;100.00;98588.97;4901665;29;20052;-82
2022/01/08 07:43:40;;;;;;;14.25;2.22;;;;;;;4.89;100.00;98611.97;4900542;29;20063;-81
2022/01/08 07:46:07;;;;;;;16.42;2.95;;;;;;;4.66;100.00;98577.59;4913572;29;20135;-82
2022/01/08 07:48:34;;;;;;;12.60;3.53;;;;;;;4.85;100.00;98606.06;4890345;29;20052;-82
2022/01/08 07:51:01;;;;;;;13.32;2.50;;;;;;;5.09;100.00;98580.69;4900091;29;20053;-82
2022/01/08 07:53:28;;;;;;;13.48;2.35;;;;;;;5.14;100.00;98565.72;4917282;29;20062;-82
2022/01/08 07:55:55;;;;;;;11.15;2.85;;;;;;;4.80;100.00;98537.19;4899618;29;20058;-82
2022/01/08 07:58:21;;;;;;;13.98;3.53;;;;;;;5.17;100.00;98524.97;4899129;29;20076;-81
2022/01/08 08:00:49;;;;;;;12.50;2.67;;;;;;;4.88;100.00;98486.63;4925877;29;20051;-81
2022/01/08 08:03:17;;;;;;;10.00;3.35;;;;;;;4.97;100.00;98541.53;4906276;29;20383;-81
2022/01/08 08:05:45;;;;;;;15.82;2.58;;;;;;;4.89;100.00;98514.25;4935764;29;20047;-81
2022/01/08 08:08:20;;;;;;;17.98;4.03;;;;;;;4.94;100.00;98503.66;4900325;29;20071;-81
2022/01/08 08:10:49;;;;;;;7.90;2.40;;;;;;;5.22;100.00;98505.66;4901139;29;20059;-81
2022/01/08 08:13:18;;;;;;;16.80;3.28;;;;;;;5.53;100.00;98495.47;4901135;29;20144;-84
2022/01/08 08:15:45;;;;;;;20.65;4.20;;;;;;;5.29;100.00;98478.50;4917516;29;20075;-81
2022/01/08 08:18:12;;;;;;;19.88;3.58;;;;;;;5.35;100.00;98479.94;4893193;29;20056;-82
2022/01/08 08:20:40;;;;;;;15.95;3.30;;;;;;;5.58;100.00;98480.47;4915212;29;20071;-82
2022/01/08 08:23:07;;;;;;;17.65;3.47;;;;;;;5.72;100.00;98478.00;4917546;29;20490;-82
2022/01/08 08:25:34;;;;;;;26.17;4.10;;;;;;;5.76;100.00;98469.09;4900891;29;20056;-82
2022/01/08 08:28:03;;;;;;;22.20;3.75;;;;;;;5.56;100.00;98432.97;4915764;29;20056;-82
2022/01/08 08:30:30;;;;;;;21.67;4.20;;;;;;;5.77;100.00;98434.44;4913982;29;20050;-82
2022/01/08 08:32:57;;;;;;;23.13;4.10;;;;;;;5.57;100.00;98391.38;4916357;29;20052;-82
2022/01/08 08:35:24;;;;;;;25.50;4.90;;;;;;;5.76;100.00;98413.75;4917104;29;20058;-82
2022/01/08 08:37:50;;;;;;;25.83;4.53;;;;;;;5.87;100.00;98401.00;4904673;29;20407;-82
2022/01/08 08:40:17;;;;;;;22.50;5.18;;;;;;;5.75;100.00;98379.13;4900996;29;20491;-81
2022/01/08 08:42:44;;;;;;;20.90;4.78;;;;;;;5.76;100.00;98361.81;4916881;29;20069;-81
2022/01/08 08:45:11;;;;;;;29.58;6.30;;;;;;;6.12;100.00;98361.50;4906766;29;20048;-82
2022/01/08 08:47:39;;;;;;;39.83;6.25;;;;;;;5.88;100.00;98350.75;4910691;29;20059;-81
2022/01/08 08:50:12;;;;;;;34.63;5.57;;;;;;;6.02;100.00;98355.16;4903292;29;20083;-81
2022/01/08 08:52:39;;;;;;;32.30;5.28;;;;;;;6.10;100.00;98342.59;4910327;29;20052;-81
2022/01/08 08:55:07;;;;;;;26.63;5.10;;;;;;;6.24;100.00;98332.22;4921765;29;20116;-81
2022/01/08 08:57:34;;;;;;;21.92;4.53;;;;;;;6.06;100.00;98351.50;4900305;29;20052;-81
2022/01/08 09:00:05;;;;;;;29.33;5.28;;;;;;;6.20;100.00;98328.13;4900348;29;20070;-81
2022/01/08 09:02:31;;;;;;;20.58;4.78;;;;;;;6.35;100.00;98317.78;4921603;29;20055;-81
2022/01/08 09:04:58;;;;;;;24.05;5.38;;;;;;;6.44;100.00;98304.22;4934344;29;20142;-81
2022/01/08 09:07:25;;;;;;;20.42;5.57;;;;;;;6.14;100.00;98293.88;4921948;29;20604;-81
2022/01/08 09:09:52;;;;;;;24.55;5.35;;;;;;;6.50;100.00;98303.88;4903880;29;20055;-81
2022/01/08 09:12:19;;;;;;;28.88;4.68;;;;;;;6.25;100.00;98275.88;4913090;29;20054;-81
2022/01/08 09:14:45;;;;;;;20.98;3.85;;;;;;;6.54;100.00;98274.16;4928907;29;20486;-81
2022/01/08 09:17:14;;;;;;;25.95;4.70;;;;;;;6.55;100.00;98277.59;4902779;29;20052;-81
2022/01/08 09:19:42;;;;;;;22.45;3.90;;;;;;;6.54;100.00;98273.31;4909349;29;20060;-81
2022/01/08 09:22:10;;;;;;;27.55;6.45;;;;;;;6.44;100.00;98257.44;4892939;29;20817;-81
2022/01/08 09:24:37;;;;;;;22.40;4.13;;;;;;;6.38;100.00;98247.41;4900202;29;20060;-81
2022/01/08 09:27:05;;;;;;;19.80;3.85;;;;;;;6.44;100.00;98250.47;4904975;29;20114;-81
2022/01/08 09:29:33;;;;;;;18.73;4.35;;;;;;;6.28;100.00;98260.13;4898372;29;20412;-81
2022/01/08 09:31:59;;;;;;;21.00;4.60;;;;;;;6.50;100.00;98233.69;4898573;29;20052;-81
2022/01/08 09:34:27;;;;;;;19.80;4.45;;;;;;;6.57;100.00;98252.31;4898985;29;20135;-81
2022/01/08 09:36:53;;;;;;;19.73;4.78;;;;;;;6.64;100.00;98240.66;4923919;29;20054;-80
2022/01/08 09:39:20;;;;;;;13.48;4.07;;;;;;;6.58;100.00;98243.59;4899406;29;20060;-80
2022/01/08 09:41:47;;;;;;;22.45;5.82;;;;;;;6.56;100.00;98238.50;4894134;29;20056;-80
2022/01/08 09:44:14;;;;;;;15.88;3.75;;;;;;;6.58;100.00;98233.22;4899990;29;20048;-80
2022/01/08 09:46:43;;;;;;;17.52;4.20;;;;;;;6.45;100.00;98220.13;4898879;29;20078;-80
2022/01/08 09:49:09;;;;;;;19.42;3.67;;;;;;;6.44;100.00;98234.03;4892774;29;20048;-81
2022/01/08 09:51:36;;;;;;;18.95;5.07;;;;;;;6.68;100.00;98229.13;4904460;29;20056;-80
2022/01/08 09:54:04;;;;;;;18.33;3.75;;;;;;;6.77;100.00;98243.31;4932175;29;20055;-82
2022/01/08 09:56:32;;;;;;;15.45;3.42;;;;;;;6.86;100.00;98224.53;4920931;29;20402;-80
2022/01/08 09:59:01;;;;;;;16.83;4.43;;;;;;;6.88;100.00;98222.66;4897001;29;20052;-80
2022/01/08 10:01:32;;;;;;;21.08;9.00;;;;;;;6.96;100.00;98217.00;4898311;29;20048;-83
2022/01/08 10:04:01;;;;;;;17.58;4.70;;;;;;;6.96;100.00;98204.00;4898212;29;20059;-81
2022/01/08 10:06:34;;;;;;;18.13;5.05;;;;;;;6.63;100.00;98216.38;4902737;29;20052;-80
2022/01/08 10:09:02;;;;;;;13.80;3.40;;;;;;;6.81;100.00;98205.78;4896590;29;20050;-80
2022/01/08 10:11:29;;;;;;;13.48;4.25;;;;;;;6.80;100.00;98189.34;4901618;29;20054;-80
2022/01/08 10:14:07;;;;;;;18.33;3.45;;;;;;;6.63;100.00;98177.38;4913425;29;20667;-81
2022/01/08 10:19:28;;;;;;;16.50;4.88;;;;;;;6.58;100.00;98166.44;4911695;29;20061;-80
2022/01/08 10:21:56;;;;;;;12.40;3.58;;;;;;;6.93;100.00;98168.59;4929662;29;20074;-80
2022/01/08 10:24:29;;;;;;;13.32;3.30;;;;;;;6.95;100.00;98163.28;4900461;29;20063;-80
2022/01/08 10:27:03;;;;;;;;;;;;;;;7.23;100.00;98172.75;4915359;29;20052;-80
2022/01/08 10:29:30;;;;;;;;;;;;;;;7.19;100.00;98173.91;4911142;29;19994;-80
2022/01/08 10:31:56;;;;;;;10.93;2.78;;;;;;;6.98;100.00;98171.75;4924147;29;20297;-80
2022/01/08 10:34:26;;;;;;;13.48;3.38;;;;;;;6.93;100.00;98175.56;4900608;29;20075;-80
2022/01/08 10:36:56;;;;;;;12.57;2.92;;;;;;;6.76;100.00;98177.44;4909230;29;20072;-80
2022/01/08 10:39:34;;;;;;;13.43;3.22;;;;;;;6.84;100.00;98166.59;4918252;29;20766;-80
2022/01/08 10:42:13;;;;;;;13.70;3.10;;;;;;;6.84;100.00;98169.19;4908612;29;20045;-80
2022/01/08 10:44:42;;;;;;;15.35;3.55;;;;;;;6.70;100.00;98154.44;4918354;29;20051;-80
2022/01/08 10:47:13;;;;;;;15.55;5.30;;;;;;;6.73;100.00;98156.00;4910263;29;20046;-80
2022/01/08 10:49:43;;;;;;;12.82;3.50;;;;;;;6.93;100.00;98154.75;4924017;29;20483;-80
2022/01/08 10:52:11;;;;;;;10.13;2.83;;;;;;;6.94;100.00;98164.22;4924362;29;20040;-80
2022/01/08 10:54:42;;;;;;;10.05;2.55;;;;;;;7.05;100.00;98166.97;4904970;29;20052;-80
2022/01/08 10:57:14;;;;;;;9.70;2.63;;;;;;;6.93;100.00;98154.75;4913404;29;20055;-81
2022/01/08 10:59:42;;;;;;;10.32;2.95;;;;;;;6.99;100.00;98141.34;4925204;29;20410;-80
2022/01/08 11:02:12;;;;;;;10.65;3.38;;;;;;;6.93;100.00;98134.78;4913434;29;20047;-81
2022/01/08 11:04:53;;;;;;;9.27;2.75;;;;;;;6.97;100.00;98130.22;4922573;29;20052;-80
2022/01/08 11:07:23;;;;;;;9.65;2.40;;;;;;;7.02;100.00;98115.97;4911789;29;20414;-84
2022/01/08 11:09:56;;;;;;;16.13;2.58;;;;;;;7.00;100.00;98124.81;4901423;29;20060;-80
2022/01/08 11:12:29;;;;;;;8.93;2.30;;;;;;;6.69;100.00;98084.31;4920675;29;20060;-80
2022/01/08 11:15:02;;;;;;;;;;;;;;;6.89;100.00;98116.84;4904507;29;20056;-80
2022/01/08 11:17:38;;;;;;;5.80;2.20;;;;;;;6.75;100.00;98115.16;4902433;29;19923;-80
2022/01/08 11:20:12;;;;;;;6.50;2.25;;;;;;;6.78;100.00;98120.13;4919254;29;20056;-80
2022/01/08 11:22:45;;;;;;;7.22;1.80;;;;;;;6.99;100.00;98116.19;4903908;29;20048;-80
2022/01/08 11:25:21;;;;;;;7.22;2.30;;;;;;;7.16;100.00;98116.84;4911269;29;20057;-80
2022/01/08 11:28:11;;;;;;;9.52;2.17;;;;;;;6.94;100.00;98086.19;4917294;29;20448;-80
2022/01/08 11:30:41;;;;;;;7.28;1.88;;;;;;;6.95;100.00;98098.25;4925767;29;20148;-80
2022/01/08 11:33:15;;;;;;;6.18;1.80;;;;;;;7.17;100.00;98106.34;4904460;29;20131;-81
2022/01/08 11:35:43;;;;;;;9.52;1.85;;;;;;;7.13;100.00;98111.84;4903699;29;20052;-81
2022/01/08 11:38:12;;;;;;;7.10;1.80;;;;;;;6.97;100.00;98099.00;4897971;29;20048;-81
2022/01/08 11:40:41;;;;;;;6.07;1.80;;;;;;;7.01;100.00;98110.84;4906254;29;20053;-81
2022/01/08 11:43:11;;;;;;;9.15;2.00;;;;;;;6.82;100.00;98093.03;4911266;29;20142;-81
2022/01/08 11:45:59;;;;;;;5.07;1.70;;;;;;;7.08;100.00;98077.47;4906879;29;20403;-81
2022/01/08 11:48:34;;;;;;;5.72;1.90;;;;;;;6.75;100.00;98068.34;4907123;29;20376;-80
2022/01/08 11:51:03;;;;;;;6.85;2.40;;;;;;;6.81;100.00;98071.38;4893981;29;20063;-81
2022/01/08 11:53:47;;;;;;;4.95;1.80;;;;;;;6.60;100.00;98070.97;4909147;29;20052;-81
2022/01/08 11:56:29;;;;;;;7.78;1.98;;;;;;;6.77;100.00;98067.31;4900672;29;20127;-81
2022/01/08 11:59:07;;;;;;;6.03;1.40;;;;;;;6.61;100.00;98071.81;4917506;29;20048;-82
2022/01/08 12:01:38;;;;;;;5.03;1.45;;;;;;;6.77;100.00;98079.47;4924374;29;20056;-82
2022/01/08 12:04:05;;;;;;;3.00;1.30;;;;;;;6.57;100.00;98060.78;4920095;29;20060;-82